Time;durP1;ratioP1;P1;durP2;ratioP2;P2;SDS_P1;SDS_P2;PMS_P1;PMS_P2;Temp;Humidity;BMP_temperature;BMP_pressure;BME280_temperature;BME280_humidity;BME280_pressure;Samples;Min_cycle;Max_cycle;Signal;HPM_P1;HPM_P2
2022/04/22 00:00:26;;;;;;;2.50;2.40;;;18.90;42.90;;;;;;5059963;28;20425;-57
2022/04/22 00:02:51;;;;;;;6.17;2.40;;;18.90;42.90;;;;;;5061483;28;20221;-57
2022/04/22 00:05:17;;;;;;;2.10;2.00;;;18.90;42.90;;;;;;5064287;28;20238;-57
2022/04/22 00:07:43;;;;;;;2.20;2.10;;;18.90;42.90;;;;;;5059407;28;20574;-57
2022/04/22 00:10:11;;;;;;;2.50;2.40;;;18.90;42.90;;;;;;5061159;28;20265;-57
2022/04/22 00:12:37;;;;;;;2.27;2.17;;;18.90;43.00;;;;;;5060968;28;20990;-58
2022/04/22 00:15:03;;;;;;;2.50;2.40;;;18.90;43.00;;;;;;5062524;28;20416;-57
2022/04/22 00:17:29;;;;;;;2.67;2.57;;;18.90;42.90;;;;;;5061182;28;20884;-57
2022/04/22 00:19:55;;;;;;;2.60;2.50;;;18.90;43.00;;;;;;5063802;28;24175;-57
2022/04/22 00:22:20;;;;;;;2.40;2.30;;;18.90;43.00;;;;;;5061291;28;20266;-57
2022/04/22 00:24:46;;;;;;;2.30;2.20;;;18.90;43.00;;;;;;5058892;28;20237;-57
2022/04/22 00:27:11;;;;;;;2.13;2.03;;;18.90;43.00;;;;;;5062828;28;20218;-58
2022/04/22 00:29:37;;;;;;;2.10;2.00;;;18.90;42.90;;;;;;5061566;28;20663;-58
2022/04/22 00:32:03;;;;;;;2.50;2.40;;;18.90;43.00;;;;;;5058382;28;20218;-58
2022/04/22 00:34:29;;;;;;;3.93;2.63;;;18.90;43.00;;;;;;5063192;28;20948;-57
2022/04/22 00:36:54;;;;;;;3.07;2.87;;;18.90;42.90;;;;;;5058078;28;20226;-57
2022/04/22 00:39:20;;;;;;;2.37;2.27;;;18.90;42.90;;;;;;5060246;28;20709;-57
2022/04/22 00:41:45;;;;;;;2.63;2.53;;;18.90;42.90;;;;;;5061002;28;20718;-57
2022/04/22 00:44:11;;;;;;;2.50;2.37;;;18.90;42.90;;;;;;5052915;28;20325;-57
2022/04/22 00:46:37;;;;;;;2.40;2.30;;;18.90;42.90;;;;;;5060281;28;20691;-58
2022/04/22 00:49:02;;;;;;;2.23;2.13;;;18.90;42.90;;;;;;5044150;28;20559;-57
2022/04/22 00:51:29;;;;;;;2.33;2.10;;;18.90;42.90;;;;;;5057331;28;20225;-57
2022/04/22 00:53:54;;;;;;;2.63;2.53;;;18.90;42.90;;;;;;5059025;28;20225;-57
2022/04/22 00:56:20;;;;;;;2.80;2.70;;;18.90;42.90;;;;;;5059656;28;20424;-57
2022/04/22 00:58:49;;;;;;;2.43;2.33;;;18.90;42.90;;;;;;5058771;28;20222;-58
2022/04/22 01:01:15;;;;;;;2.70;2.50;;;18.90;42.90;;;;;;5058584;28;20628;-57
2022/04/22 01:09:47;;;;;;;2.60;2.47;;;18.90;43.00;;;;;;5057400;28;20456;-57
2022/04/22 01:11:59;;;;;;;2.63;2.53;;;18.90;43.00;;;;;;5061204;28;20461;-57
2022/04/22 01:14:24;;;;;;;3.23;2.97;;;18.90;42.90;;;;;;5060227;28;20480;-57
2022/04/22 01:16:51;;;;;;;2.80;2.60;;;18.90;43.00;;;;;;5060812;28;20421;-58
2022/04/22 01:19:17;;;;;;;2.90;2.70;;;18.90;43.00;;;;;;5062155;28;20953;-57
2022/04/22 01:21:42;;;;;;;2.50;2.30;;;18.90;43.00;;;;;;5054978;28;20425;-57
2022/04/22 01:24:08;;;;;;;2.37;2.27;;;18.90;43.00;;;;;;5061227;28;20241;-57
2022/04/22 01:26:34;;;;;;;2.43;2.33;;;18.90;43.00;;;;;;5062513;28;20218;-57
2022/04/22 01:29:01;;;;;;;2.63;2.53;;;18.90;43.00;;;;;;5056810;28;20270;-57
2022/04/22 01:31:27;;;;;;;2.73;2.63;;;18.90;43.00;;;;;;5058914;28;20229;-57
2022/04/22 01:33:52;;;;;;;2.60;2.50;;;18.90;43.00;;;;;;5063321;28;20424;-57
2022/04/22 01:36:18;;;;;;;2.70;2.50;;;18.90;43.00;;;;;;5060198;28;20312;-57
2022/04/22 01:38:43;;;;;;;2.53;2.43;;;18.90;43.00;;;;;;5059171;28;20305;-57
2022/04/22 01:41:09;;;;;;;2.70;2.50;;;18.90;43.00;;;;;;5064150;28;20209;-57
2022/04/22 01:43:35;;;;;;;2.50;2.40;;;18.90;43.00;;;;;;5060320;28;20257;-57
2022/04/22 01:46:01;;;;;;;2.60;2.40;;;18.90;43.00;;;;;;5062838;28;20434;-58
2022/04/22 01:48:27;;;;;;;2.63;2.50;;;18.90;43.00;;;;;;5061312;28;20225;-57
2022/04/22 01:50:53;;;;;;;2.90;2.70;;;18.90;43.00;;;;;;5067367;28;20623;-57
2022/04/22 01:53:18;;;;;;;2.33;2.23;;;18.90;43.00;;;;;;5061275;28;20239;-57
2022/04/22 01:55:44;;;;;;;2.23;2.13;;;18.90;43.00;;;;;;5065582;28;20300;-57
2022/04/22 01:58:09;;;;;;;2.37;2.27;;;18.90;43.10;;;;;;5060921;28;20257;-57
2022/04/22 02:00:35;;;;;;;2.87;2.77;;;18.90;43.00;;;;;;5061075;28;20225;-57
2022/04/22 02:03:00;;;;;;;2.90;2.70;;;18.90;43.10;;;;;;5061996;28;20222;-57
2022/04/22 02:05:26;;;;;;;2.43;2.33;;;18.90;43.10;;;;;;5058892;28;20226;-57
2022/04/22 02:07:51;;;;;;;2.40;2.30;;;18.90;43.10;;;;;;5062750;28;20271;-57
2022/04/22 02:10:17;;;;;;;2.30;2.20;;;18.90;43.10;;;;;;5066243;28;20240;-57
2022/04/22 02:12:43;;;;;;;2.40;2.30;;;18.90;43.10;;;;;;5061951;28;20221;-57
2022/04/22 02:15:08;;;;;;;2.60;2.50;;;18.90;43.10;;;;;;5062153;28;20221;-56
2022/04/22 02:17:34;;;;;;;2.40;2.30;;;18.90;43.10;;;;;;5059548;28;20660;-57
2022/04/22 02:20:01;;;;;;;2.33;2.23;;;18.90;43.10;;;;;;5064813;28;20752;-57
2022/04/22 02:22:26;;;;;;;2.37;2.27;;;18.90;43.10;;;;;;5064479;28;20232;-57
2022/04/22 02:24:52;;;;;;;2.30;2.20;;;18.90;43.10;;;;;;5062782;28;20429;-57
2022/04/22 02:30:02;;;;;;;2.40;2.30;;;18.90;43.10;;;;;;5062349;28;20221;-57
2022/04/22 02:32:28;;;;;;;2.60;2.50;;;18.90;43.10;;;;;;5063782;28;20455;-58
2022/04/22 02:34:53;;;;;;;3.00;2.80;;;18.90;43.20;;;;;;5063857;28;20417;-57
2022/04/22 02:37:19;;;;;;;2.43;2.33;;;18.90;43.20;;;;;;5060104;28;20222;-58
2022/04/22 02:39:45;;;;;;;2.47;2.30;;;18.90;43.20;;;;;;5062823;28;20217;-58
2022/04/22 02:47:39;;;;;;;3.20;3.00;;;18.90;43.20;;;;;;5062956;28;20427;-58
2022/04/22 02:50:05;;;;;;;2.43;2.33;;;18.90;43.10;;;;;;5065065;28;20422;-58
2022/04/22 02:52:30;;;;;;;2.37;2.27;;;18.90;43.20;;;;;;5058977;28;20629;-57
2022/04/22 02:54:56;;;;;;;2.37;2.27;;;18.90;43.20;;;;;;5062755;28;20451;-58
2022/04/22 02:57:22;;;;;;;2.30;2.20;;;18.90;43.20;;;;;;5060132;28;20218;-57
2022/04/22 02:59:48;;;;;;;2.83;2.63;;;18.90;43.20;;;;;;5049385;28;20222;-57
2022/04/22 03:02:14;;;;;;;2.67;2.57;;;18.90;43.20;;;;;;5065532;28;20479;-57
2022/04/22 03:04:40;;;;;;;2.53;2.43;;;18.90;43.20;;;;;;5059300;28;20923;-58
2022/04/22 03:07:06;;;;;;;2.67;2.47;;;18.90;43.20;;;;;;5045430;28;20818;-59
2022/04/22 03:09:32;;;;;;;2.83;2.63;;;18.90;43.20;;;;;;5060999;28;20449;-57
2022/04/22 03:11:59;;;;;;;2.37;2.27;;;18.90;43.20;;;;;;5067189;28;20480;-57
2022/04/22 03:14:24;;;;;;;2.43;2.33;;;18.90;43.20;;;;;;5056890;28;20225;-58
2022/04/22 03:16:50;;;;;;;2.67;2.57;;;18.90;43.20;;;;;;5059666;28;20459;-58
2022/04/22 03:19:16;;;;;;;2.60;2.47;;;18.90;43.20;;;;;;5059864;28;20275;-58
2022/04/22 03:21:41;;;;;;;2.80;2.70;;;18.90;43.10;;;;;;5054710;28;20627;-58
2022/04/22 03:24:07;;;;;;;2.50;2.40;;;18.90;43.10;;;;;;5062011;28;20241;-58
2022/04/22 03:26:33;;;;;;;3.00;2.80;;;18.90;43.20;;;;;;5065859;28;20263;-58
2022/04/22 03:28:58;;;;;;;2.20;2.10;;;18.90;43.10;;;;;;5057772;28;20236;-57
2022/04/22 03:31:24;;;;;;;2.53;2.43;;;18.90;43.20;;;;;;5059827;28;20234;-58
2022/04/22 03:33:50;;;;;;;2.50;2.40;;;18.90;43.20;;;;;;5060281;28;20242;-58
2022/04/22 03:36:15;;;;;;;2.33;2.20;;;18.90;43.20;;;;;;5059014;28;20222;-57
2022/04/22 03:38:43;;;;;;;2.27;2.17;;;18.90;43.20;;;;;;5058495;28;20222;-57
2022/04/22 03:41:09;;;;;;;2.53;2.33;;;18.90;43.20;;;;;;5058730;28;20287;-58
2022/04/22 03:43:34;;;;;;;2.57;2.47;;;18.90;43.10;;;;;;5058827;28;20516;-57
2022/04/22 03:46:00;;;;;;;2.50;2.40;;;18.90;43.20;;;;;;5044067;28;20911;-58
2022/04/22 03:48:25;;;;;;;3.20;2.90;;;18.90;43.10;;;;;;5063081;28;20662;-58
2022/04/22 03:50:51;;;;;;;2.60;2.50;;;18.90;43.10;;;;;;5054058;28;20970;-57
2022/04/22 03:53:17;;;;;;;2.27;2.07;;;18.90;43.20;;;;;;5061251;28;20223;-57
2022/04/22 03:55:44;;;;;;;2.83;2.73;;;18.90;43.20;;;;;;5061857;28;20601;-57
2022/04/22 03:58:10;;;;;;;2.47;2.33;;;18.90;43.20;;;;;;5045810;28;20213;-57
2022/04/22 04:00:45;;;;;;;2.47;2.37;;;18.90;43.20;;;;;;5059341;28;20426;-59
2022/04/22 04:03:16;;;;;;;2.30;2.20;;;18.90;43.10;;;;;;5061846;28;20472;-58
2022/04/22 04:05:49;;;;;;;2.60;2.50;;;18.90;43.20;;;;;;5058912;28;20915;-58
2022/04/22 04:08:17;;;;;;;2.20;2.10;;;18.90;43.20;;;;;;5060567;28;20421;-58
2022/04/22 04:16:11;;;;;;;2.67;2.57;;;18.90;43.20;;;;;;5061770;28;20428;-57
2022/04/22 04:18:38;;;;;;;2.50;2.40;;;18.90;43.20;;;;;;5057953;28;20432;-58
2022/04/22 04:23:50;;;;;;;2.10;2.00;;;18.90;43.20;;;;;;5061892;28;20492;-58
2022/04/22 04:26:17;;;;;;;2.70;2.60;;;18.90;43.30;;;;;;5056949;28;20424;-58
2022/04/22 04:28:44;;;;;;;2.40;2.30;;;18.90;43.20;;;;;;5056937;28;20418;-58
2022/04/22 04:31:13;;;;;;;2.10;2.00;;;18.90;43.20;;;;;;5060893;28;20425;-58
2022/04/22 04:33:40;;;;;;;2.20;2.10;;;18.90;43.30;;;;;;5057498;28;20422;-57
2022/04/22 04:36:09;;;;;;;2.13;2.03;;;18.90;43.30;;;;;;5054693;28;20447;-58
2022/04/22 04:38:36;;;;;;;2.53;2.43;;;18.90;43.30;;;;;;5060290;28;20517;-58
2022/04/22 04:41:02;;;;;;;2.60;2.50;;;18.90;43.30;;;;;;5058401;28;20450;-58
2022/04/22 04:43:28;;;;;;;2.53;2.43;;;18.90;43.30;;;;;;5064137;28;20463;-58
2022/04/22 04:45:53;;;;;;;2.70;2.50;;;18.90;43.30;;;;;;5064738;28;20459;-57
2022/04/22 04:48:19;;;;;;;2.20;2.10;;;18.90;43.30;;;;;;5061057;28;20289;-58
2022/04/22 04:50:50;;;;;;;3.37;3.20;;;18.90;43.40;;;;;;5058895;28;20619;-58
2022/04/22 04:53:16;;;;;;;2.53;2.43;;;18.90;43.30;;;;;;5059394;28;20222;-58
2022/04/22 04:55:42;;;;;;;2.50;2.40;;;18.90;43.30;;;;;;5057771;28;20877;-58
2022/04/22 04:58:07;;;;;;;2.77;2.67;;;18.90;43.30;;;;;;5061185;28;20917;-58
2022/04/22 05:00:34;;;;;;;2.67;2.53;;;18.90;43.30;;;;;;5063673;28;20225;-57
2022/04/22 05:03:00;;;;;;;2.73;2.63;;;18.90;43.30;;;;;;5061875;28;20267;-58
2022/04/22 05:05:26;;;;;;;2.57;2.47;;;18.90;43.30;;;;;;5059193;28;20426;-57
2022/04/22 05:07:57;;;;;;;2.20;2.10;;;18.90;43.30;;;;;;5058761;28;20256;-57
2022/04/22 05:10:24;;;;;;;2.90;2.70;;;18.90;43.30;;;;;;5060434;28;20481;-58
2022/04/22 05:12:50;;;;;;;2.50;2.40;;;18.90;43.30;;;;;;5056785;28;20421;-58
2022/04/22 05:15:17;;;;;;;2.43;2.33;;;18.90;43.20;;;;;;5064516;28;20420;-58
2022/04/22 05:17:43;;;;;;;2.50;2.40;;;18.90;43.20;;;;;;5062984;28;20449;-59
2022/04/22 05:20:11;;;;;;;2.33;2.23;;;18.90;43.20;;;;;;5063836;28;20455;-57
2022/04/22 05:22:38;;;;;;;2.50;2.40;;;18.90;43.20;;;;;;5048760;28;20853;-57
2022/04/22 05:25:04;;;;;;;3.20;3.00;;;18.90;43.10;;;;;;5063217;28;21017;-56
2022/04/22 05:27:31;;;;;;;2.30;2.20;;;18.90;43.00;;;;;;5063063;28;20434;-57
2022/04/22 05:32:47;;;;;;;2.40;2.30;;;18.90;43.10;;;;;;5064449;28;20431;-57
2022/04/22 05:35:13;;;;;;;2.73;2.60;;;19.00;43.10;;;;;;5056428;28;20438;-56
2022/04/22 05:37:49;;;;;;;2.93;2.73;;;19.00;43.80;;;;;;5066264;28;20445;-57
2022/04/22 05:40:20;;;;;;;2.63;2.53;;;19.00;43.00;;;;;;5067528;28;20452;-56
2022/04/22 05:42:46;;;;;;;2.53;2.43;;;19.00;43.00;;;;;;5064670;28;20417;-56
2022/04/22 05:45:14;;;;;;;2.43;2.33;;;19.00;43.00;;;;;;5064616;28;20433;-56
2022/04/22 05:47:41;;;;;;;2.70;2.60;;;19.00;43.00;;;;;;5061679;28;20452;-57
2022/04/22 05:50:09;;;;;;;3.00;2.80;;;19.00;43.00;;;;;;5062031;28;20872;-57
2022/04/22 05:52:35;;;;;;;2.20;2.00;;;19.00;43.00;;;;;;5060930;28;20747;-56
2022/04/22 05:55:02;;;;;;;2.80;2.60;;;19.00;43.00;;;;;;5062994;28;20467;-57
2022/04/22 05:57:34;;;;;;;2.60;2.43;;;19.00;43.00;;;;;;5054988;28;20438;-57
2022/04/22 06:00:04;;;;;;;2.70;2.50;;;19.00;42.90;;;;;;5063275;28;20458;-57
2022/04/22 06:02:30;;;;;;;2.40;2.30;;;19.00;42.90;;;;;;5065107;28;20417;-59
2022/04/22 06:04:55;;;;;;;2.47;2.37;;;19.00;42.90;;;;;;5061825;28;20809;-57
2022/04/22 06:07:21;;;;;;;2.60;2.40;;;19.00;42.90;;;;;;5062281;28;20421;-56
2022/04/22 06:12:31;;;;;;;2.53;2.43;;;19.00;42.90;;;;;;5058013;28;20305;-57
2022/04/22 06:15:00;;;;;;;3.03;2.87;;;19.00;42.90;;;;;;5046963;28;20427;-57
2022/04/22 06:17:29;;;;;;;3.23;3.03;;;19.00;42.90;;;;;;5062183;28;22820;-57
2022/04/22 06:19:56;;;;;;;2.40;2.30;;;19.00;43.00;;;;;;5062923;28;20479;-56
2022/04/22 06:22:22;;;;;;;2.33;2.23;;;19.00;43.00;;;;;;5061670;28;20476;-57
2022/04/22 06:24:48;;;;;;;2.67;2.50;;;19.00;42.90;;;;;;5064171;28;20866;-57
2022/04/22 06:27:13;;;;;;;2.50;2.30;;;19.00;42.90;;;;;;5056805;28;20469;-57
2022/04/22 06:29:39;;;;;;;2.90;2.70;;;19.00;43.00;;;;;;5062202;28;20267;-57
2022/04/22 06:32:05;;;;;;;2.90;2.80;;;19.00;42.90;;;;;;5063196;28;20218;-56
2022/04/22 06:34:31;;;;;;;2.90;2.73;;;19.00;43.00;;;;;;5054661;28;20263;-57
2022/04/22 06:36:57;;;;;;;2.60;2.50;;;19.00;43.00;;;;;;5067719;28;20463;-57
2022/04/22 06:39:23;;;;;;;3.00;2.80;;;19.00;42.90;;;;;;5063072;28;20230;-57
2022/04/22 06:47:18;;;;;;;2.83;2.73;;;19.00;42.90;;;;;;5058396;28;20480;-57
2022/04/22 06:49:43;;;;;;;3.03;2.83;;;19.00;42.90;;;;;;5058669;28;20443;-56
2022/04/22 06:52:10;;;;;;;2.63;2.53;;;19.00;42.90;;;;;;5061867;28;20218;-56
2022/04/22 06:54:36;;;;;;;2.70;2.50;;;19.00;43.00;;;;;;5059880;28;20906;-55
2022/04/22 06:57:02;;;;;;;2.87;2.77;;;19.10;43.00;;;;;;5064564;28;20473;-56
2022/04/22 06:59:29;;;;;;;3.03;2.83;;;19.10;43.10;;;;;;5061157;28;20890;-57
2022/04/22 07:01:55;;;;;;;3.40;3.20;;;19.10;43.10;;;;;;5045562;28;20911;-56
2022/04/22 07:04:22;;;;;;;2.97;2.77;;;19.10;43.00;;;;;;5055273;28;20469;-56
2022/04/22 07:06:48;;;;;;;2.47;2.37;;;19.10;43.10;;;;;;5061393;28;20222;-58
2022/04/22 07:09:14;;;;;;;2.60;2.50;;;19.10;43.00;;;;;;5060188;28;20522;-57
2022/04/22 07:11:43;;;;;;;3.13;2.93;;;19.10;43.00;;;;;;5053085;28;20218;-56
2022/04/22 07:14:10;;;;;;;2.97;2.87;;;19.10;43.00;;;;;;5062296;28;20713;-57
2022/04/22 07:16:41;;;;;;;3.23;3.03;;;19.10;43.00;;;;;;5065865;28;20466;-58
2022/04/22 07:19:07;;;;;;;2.93;2.73;;;19.10;43.80;;;;;;5059197;28;20440;-58
2022/04/22 07:21:33;;;;;;;3.27;3.07;;;19.10;43.00;;;;;;5063513;28;20451;-56
2022/04/22 07:23:59;;;;;;;2.73;2.53;;;19.10;43.00;;;;;;5063432;28;20238;-56
2022/04/22 07:26:25;;;;;;;3.03;2.83;;;19.10;42.90;;;;;;5058446;28;20222;-56
2022/04/22 07:28:51;;;;;;;3.30;3.10;;;19.10;42.90;;;;;;5059503;28;20583;-58
2022/04/22 07:31:19;;;;;;;3.53;3.33;;;19.10;42.80;;;;;;5058656;28;20456;-57
2022/04/22 07:33:44;;;;;;;3.33;3.13;;;19.10;42.80;;;;;;5056913;28;20218;-57
2022/04/22 07:36:10;;;;;;;3.13;3.00;;;19.10;42.80;;;;;;5044770;28;20956;-56
2022/04/22 07:38:36;;;;;;;3.00;2.80;;;19.10;42.80;;;;;;5060441;28;20222;-57
2022/04/22 07:41:02;;;;;;;3.03;2.83;;;19.10;42.80;;;;;;5065383;28;20506;-57
2022/04/22 07:48:57;;;;;;;3.10;2.90;;;19.10;43.00;;;;;;5053405;28;20553;-56
2022/04/22 07:51:25;;;;;;;3.30;3.10;;;19.10;42.90;;;;;;5064437;28;21128;-56
2022/04/22 07:53:51;;;;;;;3.57;3.37;;;19.10;43.00;;;;;;5062429;28;20933;-56
2022/04/22 07:56:17;;;;;;;3.17;2.97;;;19.10;43.00;;;;;;5060941;28;20421;-56
2022/04/22 07:58:42;;;;;;;3.43;3.23;;;19.10;43.00;;;;;;5059152;28;20884;-56
2022/04/22 08:01:08;;;;;;;3.30;3.10;;;19.10;43.00;;;;;;5064433;28;20226;-57
2022/04/22 08:03:34;;;;;;;3.17;2.87;;;19.10;43.00;;;;;;5058706;28;20283;-56
2022/04/22 08:06:00;;;;;;;3.83;3.63;;;19.10;43.00;;;;;;5061285;28;20431;-55
2022/04/22 08:08:28;;;;;;;3.27;3.07;;;19.10;43.00;;;;;;5061018;28;20743;-56
2022/04/22 08:10:55;;;;;;;2.63;2.53;;;19.10;43.40;;;;;;5054322;28;20299;-56
2022/04/22 08:13:21;;;;;;;3.67;3.47;;;19.10;43.00;;;;;;5042826;28;20443;-56
2022/04/22 08:15:46;;;;;;;3.57;3.37;;;19.10;43.10;;;;;;5060856;28;20416;-56
2022/04/22 08:18:12;;;;;;;3.33;3.13;;;19.10;43.70;;;;;;5062030;28;20218;-56
2022/04/22 08:20:37;;;;;;;3.60;3.40;;;19.10;43.00;;;;;;5057123;28;20341;-56
2022/04/22 08:23:03;;;;;;;3.83;3.63;;;19.10;42.90;;;;;;5061235;28;20270;-55
2022/04/22 08:25:29;;;;;;;3.33;3.13;;;19.10;42.90;;;;;;5058868;28;20242;-57
2022/04/22 08:27:55;;;;;;;3.00;2.80;;;19.10;42.90;;;;;;5059789;28;20452;-57
2022/04/22 08:30:20;;;;;;;3.03;2.83;;;19.20;42.90;;;;;;5057148;28;20214;-56
2022/04/22 08:32:46;;;;;;;3.40;3.20;;;19.20;42.90;;;;;;5060311;28;20214;-57
2022/04/22 08:35:11;;;;;;;3.40;3.20;;;19.20;42.90;;;;;;5059003;28;20739;-57
2022/04/22 08:37:38;;;;;;;2.63;2.53;;;19.10;42.90;;;;;;5059024;28;20222;-56
2022/04/22 08:40:05;;;;;;;3.03;2.93;;;19.20;42.90;;;;;;5058823;28;20221;-56
2022/04/22 08:42:37;;;;;;;3.80;3.60;;;19.20;42.90;;;;;;5059595;28;20430;-56
2022/04/22 08:45:03;;;;;;;3.00;2.87;;;19.20;42.90;;;;;;5061831;28;20458;-56
2022/04/22 08:50:16;;;;;;;3.17;3.07;;;19.20;42.90;;;;;;5065213;28;21068;-57
2022/04/22 08:52:45;;;;;;;3.10;2.90;;;19.20;42.90;;;;;;5063906;28;20439;-56
2022/04/22 08:55:12;;;;;;;3.27;3.07;;;19.20;42.90;;;;;;5062201;28;20429;-55
2022/04/22 08:57:40;;;;;;;3.20;3.00;;;19.20;43.00;;;;;;5063655;28;20467;-55
2022/04/22 09:00:07;;;;;;;3.93;3.70;;;19.10;42.80;;;;;;5065922;28;20446;-55
2022/04/22 09:02:33;;;;;;;3.13;2.93;;;19.20;42.90;;;;;;5066083;28;20413;-55
2022/04/22 09:04:59;;;;;;;3.10;2.90;;;19.20;42.90;;;;;;5050340;28;20544;-55
2022/04/22 09:07:29;;;;;;;3.27;3.07;;;19.10;42.80;;;;;;5060058;28;20542;-56
2022/04/22 09:09:55;;;;;;;3.70;3.50;;;19.20;43.00;;;;;;5066448;28;20240;-56
2022/04/22 09:12:25;;;;;;;3.30;3.10;;;19.20;42.90;;;;;;5061059;28;20421;-55
2022/04/22 09:14:57;;;;;;;3.40;3.10;;;19.10;42.90;;;;;;5066820;28;20237;-56
2022/04/22 09:17:25;;;;;;;2.60;2.43;;;19.10;42.90;;;;;;5060672;28;20425;-55
2022/04/22 09:19:53;;;;;;;3.47;3.23;;;19.10;43.00;;;;;;5061187;28;20425;-55
2022/04/22 09:22:23;;;;;;;3.30;3.10;;;19.10;43.00;;;;;;5067679;28;20776;-56
2022/04/22 09:24:59;;;;;;;2.93;2.73;;;19.10;43.70;;;;;;5061650;28;20476;-55
2022/04/22 09:27:33;;;;;;;3.43;3.23;;;19.10;43.00;;;;;;5064876;28;20458;-56
2022/04/22 09:30:00;;;;;;;3.20;3.00;;;19.10;43.00;;;;;;5065586;28;20967;-56
2022/04/22 09:32:30;;;;;;;3.20;3.00;;;19.10;43.00;;;;;;5060730;28;20442;-56
2022/04/22 09:35:20;;;;;;;2.97;2.83;;;19.10;43.00;;;;;;5059446;28;20528;-57
2022/04/22 09:43:22;;;;;;;3.10;2.90;;;19.10;43.10;;;;;;5060532;28;20452;-56
2022/04/22 09:45:53;;;;;;;3.47;3.27;;;19.10;43.10;;;;;;5063726;28;20463;-56
2022/04/22 09:48:20;;;;;;;3.20;3.00;;;19.10;43.10;;;;;;5066120;28;20527;-56
2022/04/22 09:50:53;;;;;;;2.90;2.70;;;19.10;43.10;;;;;;5064022;28;20435;-62
2022/04/22 09:53:33;;;;;;;3.13;2.70;;;19.10;43.10;;;;;;5066463;28;20474;-61
2022/04/22 09:56:08;;;;;;;3.77;3.57;;;19.10;43.10;;;;;;5060065;28;20474;-61
2022/04/22 09:58:35;;;;;;;3.33;3.13;;;19.10;43.10;;;;;;5060839;28;20453;-56
2022/04/22 10:01:06;;;;;;;3.10;2.90;;;19.10;43.20;;;;;;5064376;28;20425;-56
2022/04/22 10:03:33;;;;;;;3.13;2.93;;;19.10;43.10;;;;;;5058643;28;20518;-56
2022/04/22 10:06:01;;;;;;;3.17;2.97;;;19.10;43.20;;;;;;5067102;28;20846;-56
2022/04/22 10:08:30;;;;;;;3.80;3.60;;;19.10;43.10;;;;;;5063979;28;20515;-56
2022/04/22 10:10:59;;;;;;;3.40;3.20;;;19.10;43.20;;;;;;5062192;28;20500;-56
2022/04/22 10:13:30;;;;;;;2.90;2.70;;;19.10;43.10;;;;;;5062518;28;20578;-56
2022/04/22 10:15:56;;;;;;;3.37;3.17;;;19.10;43.20;;;;;;5061670;28;25618;-56
2022/04/22 10:18:22;;;;;;;3.50;3.30;;;19.10;43.20;;;;;;5061621;28;21100;-56
2022/04/22 10:20:49;;;;;;;3.20;3.00;;;19.10;43.20;;;;;;5063721;28;20217;-56
2022/04/22 10:23:14;;;;;;;3.00;2.80;;;19.10;43.20;;;;;;5065598;28;20418;-56
2022/04/22 10:25:40;;;;;;;3.10;2.90;;;19.10;43.20;;;;;;5067328;28;20511;-56
2022/04/22 10:28:08;;;;;;;3.90;3.70;;;19.10;43.30;;;;;;5064492;28;20222;-56
2022/04/22 10:30:35;;;;;;;3.67;3.43;;;19.10;43.30;;;;;;5043346;28;20218;-56
2022/04/22 10:33:02;;;;;;;3.10;2.90;;;19.10;43.30;;;;;;5050973;28;21363;-56
2022/04/22 10:35:29;;;;;;;3.60;3.40;;;19.10;43.30;;;;;;5059727;28;20784;-56
2022/04/22 10:37:55;;;;;;;3.33;3.10;;;19.10;43.30;;;;;;5059561;28;20445;-57
2022/04/22 10:40:23;;;;;;;3.50;3.30;;;19.10;43.30;;;;;;5054043;28;20426;-56
2022/04/22 10:42:50;;;;;;;3.10;2.90;;;19.00;43.30;;;;;;5065454;28;20218;-56
2022/04/22 10:48:25;;;;;;;2.90;2.70;;;19.00;43.30;;;;;;4985036;28;20435;-56
2022/04/22 10:51:02;;;;;;;2.97;2.77;;;19.00;43.30;;;;;;4981338;28;20492;-56
2022/04/22 10:53:39;;;;;;;2.77;2.67;;;19.00;43.30;;;;;;5023327;28;20487;-56
2022/04/22 10:56:26;;;;;;;3.43;3.23;;;19.00;43.30;;;;;;5061727;28;20466;-56
2022/04/22 10:59:10;;;;;;;3.60;3.30;;;19.00;43.40;;;;;;5048525;28;20479;-56
2022/04/22 11:01:39;;;;;;;3.30;3.10;;;19.00;43.40;;;;;;5053213;28;20422;-57
2022/04/22 11:04:18;;;;;;;3.53;3.33;;;19.00;43.40;;;;;;5063744;28;21081;-56
2022/04/22 11:06:43;;;;;;;3.33;3.13;;;19.00;43.30;;;;;;5060816;28;20913;-56
2022/04/22 11:09:09;;;;;;;3.30;3.10;;;19.00;43.30;;;;;;5061193;28;20462;-56
2022/04/22 11:11:41;;;;;;;3.27;3.07;;;19.00;43.40;;;;;;5060333;28;20269;-56
2022/04/22 11:14:21;;;;;;;3.20;3.00;;;19.00;43.40;;;;;;5062457;28;20864;-56
2022/04/22 11:16:47;;;;;;;3.50;3.30;;;19.00;43.30;;;;;;5059186;28;20437;-56
2022/04/22 11:19:18;;;;;;;3.20;3.00;;;19.00;43.30;;;;;;5058866;28;20417;-56
2022/04/22 11:21:45;;;;;;;3.47;3.27;;;19.00;43.50;;;;;;5058850;28;20206;-56
2022/04/22 11:24:15;;;;;;;3.20;3.00;;;19.00;43.50;;;;;;5062882;28;20451;-56
2022/04/22 11:26:45;;;;;;;3.33;3.13;;;19.00;43.50;;;;;;5059748;28;20516;-55
2022/04/22 11:29:12;;;;;;;2.90;2.70;;;19.00;43.50;;;;;;5063792;28;20544;-56
2022/04/22 11:31:38;;;;;;;2.97;2.80;;;19.00;43.60;;;;;;5056521;28;20458;-56
2022/04/22 11:34:07;;;;;;;3.53;3.33;;;19.00;43.60;;;;;;5058676;28;20414;-55
2022/04/22 11:36:46;;;;;;;3.73;3.53;;;19.00;43.60;;;;;;5046341;28;20701;-56
2022/04/22 11:39:20;;;;;;;3.00;2.80;;;19.00;43.50;;;;;;5055864;28;20454;-56
2022/04/22 11:42:00;;;;;;;2.80;2.70;;;19.00;43.60;;;;;;5060194;28;20440;-56
2022/04/22 11:44:30;;;;;;;3.53;3.30;;;19.00;43.70;;;;;;5063285;28;20449;-55
2022/04/22 11:46:59;;;;;;;3.50;3.30;;;19.00;43.70;;;;;;5059160;28;20869;-56
2022/04/22 11:49:29;;;;;;;3.80;3.60;;;19.00;43.70;;;;;;5058090;28;20450;-56
2022/04/22 11:51:55;;;;;;;3.03;2.83;;;19.00;43.70;;;;;;5063258;28;20947;-55
2022/04/22 11:54:25;;;;;;;3.40;3.20;;;19.00;43.70;;;;;;5062076;28;20546;-56
2022/04/22 11:56:52;;;;;;;3.40;3.20;;;19.00;43.80;;;;;;5064631;28;20425;-56
2022/04/22 11:59:22;;;;;;;3.20;3.00;;;19.00;43.80;;;;;;5055769;28;20786;-55
2022/04/22 12:10:03;;;;;;;3.10;2.90;;;19.00;43.80;;;;;;5057467;28;20922;-56
2022/04/22 12:12:29;;;;;;;3.30;3.10;;;19.00;43.80;;;;;;5060622;28;20482;-56
2022/04/22 12:15:03;;;;;;;3.63;3.43;;;19.00;43.80;;;;;;5061381;28;20433;-56
2022/04/22 12:17:30;;;;;;;3.63;3.43;;;19.00;43.80;;;;;;5053990;28;20452;-56
2022/04/22 12:19:56;;;;;;;3.93;3.73;;;19.00;43.80;;;;;;5059725;28;20557;-56
2022/04/22 12:22:23;;;;;;;3.50;3.20;;;19.00;43.80;;;;;;5060959;28;20931;-56
2022/04/22 12:25:07;;;;;;;4.47;4.27;;;19.00;43.80;;;;;;5057923;28;20823;-56
2022/04/22 12:27:33;;;;;;;3.07;2.90;;;19.00;43.80;;;;;;5060364;28;20525;-56
2022/04/22 12:30:05;;;;;;;3.43;3.23;;;19.00;43.80;;;;;;5060672;28;20447;-56
2022/04/22 12:32:31;;;;;;;3.73;3.53;;;19.00;43.80;;;;;;5056644;28;20437;-56
2022/04/22 12:35:17;;;;;;;3.20;3.00;;;19.00;44.60;;;;;;5061192;28;20823;-56
2022/04/22 12:37:50;;;;;;;3.90;3.33;;;19.00;43.80;;;;;;5055970;28;20213;-56
2022/04/22 12:40:19;;;;;;;3.70;3.50;;;19.00;43.80;;;;;;5058808;28;20528;-56
2022/04/22 12:42:45;;;;;;;3.70;3.50;;;19.00;43.80;;;;;;5059737;28;20826;-55
2022/04/22 12:54:09;;;;;;;3.63;3.43;;;19.00;43.80;;;;;;5056323;28;20436;-56
2022/04/22 12:56:34;;;;;;;3.90;3.67;;;19.00;43.80;;;;;;5059466;28;20455;-55
2022/04/22 12:59:03;;;;;;;3.20;3.00;;;19.00;43.80;;;;;;5062479;28;20409;-55
2022/04/22 13:01:30;;;;;;;3.63;3.33;;;19.00;43.80;;;;;;5054012;28;20249;-55
2022/04/22 13:03:57;;;;;;;3.67;3.47;;;19.00;43.80;;;;;;5059249;28;20449;-55
2022/04/22 13:06:35;;;;;;;3.80;3.50;;;19.00;43.80;;;;;;5058399;28;20553;-55
2022/04/22 13:09:00;;;;;;;3.20;3.00;;;18.90;43.70;;;;;;5056957;28;20449;-55
2022/04/22 13:11:26;;;;;;;3.40;3.20;;;19.00;43.80;;;;;;5055091;28;20436;-55
2022/04/22 13:13:51;;;;;;;3.40;3.20;;;19.00;43.80;;;;;;5055652;28;20215;-56
2022/04/22 13:16:17;;;;;;;4.10;3.80;;;19.00;43.80;;;;;;5046873;28;20229;-55
2022/04/22 13:18:43;;;;;;;3.90;3.70;;;18.90;43.70;;;;;;5059401;28;20210;-55
2022/04/22 13:21:08;;;;;;;3.47;3.27;;;19.00;43.80;;;;;;5058793;28;20229;-55
2022/04/22 13:23:34;;;;;;;3.80;3.50;;;19.00;43.80;;;;;;5056580;28;20675;-55
2022/04/22 13:25:59;;;;;;;3.40;3.20;;;18.90;43.70;;;;;;5064826;28;20678;-54
2022/04/22 13:28:25;;;;;;;3.40;3.20;;;18.90;43.70;;;;;;5058539;28;20223;-54
2022/04/22 13:30:51;;;;;;;3.63;3.43;;;19.00;43.80;;;;;;5048968;28;20228;-56
2022/04/22 13:33:16;;;;;;;4.13;3.93;;;18.90;43.70;;;;;;5066232;28;20222;-56
2022/04/22 13:35:42;;;;;;;4.20;4.00;;;18.90;43.70;;;;;;5066724;28;20218;-55
2022/04/22 13:38:07;;;;;;;3.80;3.60;;;18.90;43.70;;;;;;5065233;28;20683;-56
2022/04/22 13:40:33;;;;;;;3.67;3.47;;;18.90;43.70;;;;;;5057749;28;20291;-55
2022/04/22 13:42:58;;;;;;;3.87;3.67;;;19.00;43.80;;;;;;5066144;28;20226;-56
2022/04/22 13:53:38;;;;;;;4.00;3.70;;;18.90;43.70;;;;;;5056409;28;20512;-56
2022/04/22 13:56:05;;;;;;;3.40;3.20;;;18.90;43.70;;;;;;5062184;28;20514;-55
2022/04/22 13:58:32;;;;;;;4.00;3.80;;;18.90;43.70;;;;;;5062274;28;20446;-55
2022/04/22 14:00:59;;;;;;;3.40;3.20;;;18.90;43.70;;;;;;5062230;28;20443;-55
2022/04/22 14:03:24;;;;;;;3.37;3.17;;;18.90;43.70;;;;;;5064258;28;20429;-55